sensor_id;sensor_type;location;lat;lon;timestamp;P1;durP1;ratioP1;P2;durP2;ratioP2
30707;SDS011;17458;48.958;8.284;2023-05-20T00:00:45;8.57;;;3.70;;
30707;SDS011;17458;48.958;8.284;2023-05-20T00:03:31;10.90;;;4.55;;
30707;SDS011;17458;48.958;8.284;2023-05-20T00:06:16;8.88;;;3.55;;
30707;SDS011;17458;48.958;8.284;2023-05-20T00:09:00;6.15;;;3.35;;
30707;SDS011;17458;48.958;8.284;2023-05-20T00:11:44;3.50;;;3.03;;
30707;SDS011;17458;48.958;8.284;2023-05-20T00:14:28;4.72;;;3.70;;
30707;SDS011;17458;48.958;8.284;2023-05-20T00:17:13;5.85;;;2.95;;
30707;SDS011;17458;48.958;8.284;2023-05-20T00:19:57;6.28;;;2.85;;
30707;SDS011;17458;48.958;8.284;2023-05-20T00:22:42;3.72;;;2.90;;
30707;SDS011;17458;48.958;8.284;2023-05-20T00:25:26;9.40;;;3.70;;
30707;SDS011;17458;48.958;8.284;2023-05-20T00:28:10;7.00;;;3.20;;
30707;SDS011;17458;48.958;8.284;2023-05-20T00:30:54;8.82;;;3.10;;
30707;SDS011;17458;48.958;8.284;2023-05-20T00:33:38;6.80;;;2.72;;
30707;SDS011;17458;48.958;8.284;2023-05-20T00:36:22;10.10;;;2.58;;
30707;SDS011;17458;48.958;8.284;2023-05-20T00:39:06;6.82;;;2.45;;
30707;SDS011;17458;48.958;8.284;2023-05-20T00:41:50;5.22;;;2.67;;
30707;SDS011;17458;48.958;8.284;2023-05-20T00:44:34;8.70;;;2.50;;
30707;SDS011;17458;48.958;8.284;2023-05-20T00:47:20;3.30;;;2.10;;
30707;SDS011;17458;48.958;8.284;2023-05-20T00:50:08;4.85;;;2.30;;
30707;SDS011;17458;48.958;8.284;2023-05-20T00:52:53;3.83;;;2.30;;
30707;SDS011;17458;48.958;8.284;2023-05-20T00:55:38;2.80;;;2.08;;
30707;SDS011;17458;48.958;8.284;2023-05-20T00:58:22;2.75;;;2.50;;
30707;SDS011;17458;48.958;8.284;2023-05-20T01:01:06;3.10;;;2.45;;
30707;SDS011;17458;48.958;8.284;2023-05-20T01:03:50;4.00;;;2.28;;
30707;SDS011;17458;48.958;8.284;2023-05-20T01:06:35;4.30;;;2.85;;
30707;SDS011;17458;48.958;8.284;2023-05-20T01:09:21;3.67;;;2.28;;
30707;SDS011;17458;48.958;8.284;2023-05-20T01:12:11;3.35;;;2.42;;
30707;SDS011;17458;48.958;8.284;2023-05-20T01:15:08;4.55;;;2.65;;
30707;SDS011;17458;48.958;8.284;2023-05-20T01:17:59;4.25;;;2.10;;
30707;SDS011;17458;48.958;8.284;2023-05-20T01:20:48;7.57;;;2.28;;
30707;SDS011;17458;48.958;8.284;2023-05-20T01:23:37;6.40;;;3.20;;
30707;SDS011;17458;48.958;8.284;2023-05-20T01:26:26;2.28;;;1.90;;
30707;SDS011;17458;48.958;8.284;2023-05-20T01:29:10;3.83;;;3.00;;
30707;SDS011;17458;48.958;8.284;2023-05-20T01:31:56;3.90;;;2.83;;
30707;SDS011;17458;48.958;8.284;2023-05-20T01:34:42;9.35;;;2.50;;
30707;SDS011;17458;48.958;8.284;2023-05-20T01:37:27;3.50;;;2.17;;
30707;SDS011;17458;48.958;8.284;2023-05-20T01:40:14;3.30;;;2.22;;
30707;SDS011;17458;48.958;8.284;2023-05-20T01:43:00;9.55;;;3.00;;
30707;SDS011;17458;48.958;8.284;2023-05-20T01:45:46;5.90;;;2.50;;
30707;SDS011;17458;48.958;8.284;2023-05-20T01:48:30;5.88;;;2.85;;
30707;SDS011;17458;48.958;8.284;2023-05-20T01:51:14;4.00;;;2.83;;
30707;SDS011;17458;48.958;8.284;2023-05-20T01:54:00;5.18;;;2.47;;
30707;SDS011;17458;48.958;8.284;2023-05-20T01:56:45;6.82;;;2.88;;
30707;SDS011;17458;48.958;8.284;2023-05-20T01:59:30;7.10;;;2.40;;
30707;SDS011;17458;48.958;8.284;2023-05-20T02:02:14;4.15;;;3.33;;
30707;SDS011;17458;48.958;8.284;2023-05-20T02:04:59;5.25;;;2.80;;
30707;SDS011;17458;48.958;8.284;2023-05-20T02:07:43;3.75;;;2.88;;
30707;SDS011;17458;48.958;8.284;2023-05-20T02:10:27;6.80;;;3.03;;
30707;SDS011;17458;48.958;8.284;2023-05-20T02:13:11;3.42;;;2.55;;
30707;SDS011;17458;48.958;8.284;2023-05-20T02:15:56;3.03;;;2.70;;
30707;SDS011;17458;48.958;8.284;2023-05-20T02:18:41;3.83;;;2.60;;
30707;SDS011;17458;48.958;8.284;2023-05-20T02:21:25;7.10;;;2.60;;
30707;SDS011;17458;48.958;8.284;2023-05-20T02:24:10;2.55;;;2.35;;
30707;SDS011;17458;48.958;8.284;2023-05-20T02:26:54;3.65;;;2.75;;
30707;SDS011;17458;48.958;8.284;2023-05-20T02:29:41;4.68;;;2.75;;
30707;SDS011;17458;48.958;8.284;2023-05-20T02:32:26;3.58;;;2.90;;
30707;SDS011;17458;48.958;8.284;2023-05-20T02:35:11;5.72;;;3.08;;
30707;SDS011;17458;48.958;8.284;2023-05-20T02:37:55;2.47;;;2.20;;
30707;SDS011;17458;48.958;8.284;2023-05-20T02:40:42;5.10;;;3.42;;
30707;SDS011;17458;48.958;8.284;2023-05-20T02:43:26;5.90;;;3.03;;
30707;SDS011;17458;48.958;8.284;2023-05-20T02:46:10;3.17;;;2.28;;
30707;SDS011;17458;48.958;8.284;2023-05-20T02:48:56;2.83;;;2.63;;
30707;SDS011;17458;48.958;8.284;2023-05-20T02:51:40;6.43;;;2.70;;
30707;SDS011;17458;48.958;8.284;2023-05-20T02:54:24;5.10;;;2.88;;
30707;SDS011;17458;48.958;8.284;2023-05-20T02:57:09;5.25;;;2.53;;
30707;SDS011;17458;48.958;8.284;2023-05-20T02:59:53;3.60;;;2.78;;
30707;SDS011;17458;48.958;8.284;2023-05-20T03:02:38;5.53;;;2.95;;
30707;SDS011;17458;48.958;8.284;2023-05-20T03:05:23;6.60;;;2.42;;
30707;SDS011;17458;48.958;8.284;2023-05-20T03:08:08;4.68;;;3.25;;
30707;SDS011;17458;48.958;8.284;2023-05-20T03:10:53;3.00;;;2.65;;
30707;SDS011;17458;48.958;8.284;2023-05-20T03:13:38;3.33;;;2.60;;
30707;SDS011;17458;48.958;8.284;2023-05-20T03:16:22;7.45;;;2.83;;
30707;SDS011;17458;48.958;8.284;2023-05-20T03:19:08;5.28;;;2.30;;
30707;SDS011;17458;48.958;8.284;2023-05-20T03:21:53;4.35;;;2.60;;
30707;SDS011;17458;48.958;8.284;2023-05-20T03:24:37;5.95;;;2.55;;
30707;SDS011;17458;48.958;8.284;2023-05-20T03:27:22;5.20;;;2.80;;
30707;SDS011;17458;48.958;8.284;2023-05-20T03:30:09;3.42;;;2.40;;
30707;SDS011;17458;48.958;8.284;2023-05-20T03:32:54;4.82;;;2.90;;
30707;SDS011;17458;48.958;8.284;2023-05-20T03:35:40;12.63;;;2.88;;
30707;SDS011;17458;48.958;8.284;2023-05-20T03:38:24;3.35;;;2.70;;
30707;SDS011;17458;48.958;8.284;2023-05-20T03:41:08;10.88;;;3.35;;
30707;SDS011;17458;48.958;8.284;2023-05-20T03:43:52;4.38;;;2.85;;
30707;SDS011;17458;48.958;8.284;2023-05-20T03:46:36;5.53;;;2.92;;
30707;SDS011;17458;48.958;8.284;2023-05-20T03:49:21;12.25;;;4.32;;
30707;SDS011;17458;48.958;8.284;2023-05-20T03:52:05;6.50;;;2.78;;
30707;SDS011;17458;48.958;8.284;2023-05-20T03:54:50;9.30;;;3.22;;
30707;SDS011;17458;48.958;8.284;2023-05-20T03:57:34;3.03;;;2.47;;
30707;SDS011;17458;48.958;8.284;2023-05-20T04:00:19;7.38;;;2.72;;
30707;SDS011;17458;48.958;8.284;2023-05-20T04:03:04;3.08;;;2.78;;
30707;SDS011;17458;48.958;8.284;2023-05-20T04:05:49;7.13;;;3.15;;
30707;SDS011;17458;48.958;8.284;2023-05-20T04:08:37;5.93;;;3.08;;
30707;SDS011;17458;48.958;8.284;2023-05-20T04:11:22;9.52;;;3.05;;
30707;SDS011;17458;48.958;8.284;2023-05-20T04:14:06;3.78;;;2.90;;
30707;SDS011;17458;48.958;8.284;2023-05-20T04:16:52;5.32;;;3.30;;
30707;SDS011;17458;48.958;8.284;2023-05-20T04:19:37;6.63;;;3.72;;
30707;SDS011;17458;48.958;8.284;2023-05-20T04:22:21;4.82;;;3.40;;
30707;SDS011;17458;48.958;8.284;2023-05-20T04:25:06;8.15;;;2.90;;
30707;SDS011;17458;48.958;8.284;2023-05-20T04:27:51;5.78;;;2.92;;
30707;SDS011;17458;48.958;8.284;2023-05-20T04:30:37;8.82;;;3.53;;
30707;SDS011;17458;48.958;8.284;2023-05-20T04:33:21;4.68;;;3.05;;
30707;SDS011;17458;48.958;8.284;2023-05-20T04:36:11;5.07;;;3.13;;
30707;SDS011;17458;48.958;8.284;2023-05-20T04:38:58;5.47;;;3.55;;
30707;SDS011;17458;48.958;8.284;2023-05-20T04:41:42;6.78;;;3.08;;
30707;SDS011;17458;48.958;8.284;2023-05-20T04:44:28;5.53;;;3.38;;
30707;SDS011;17458;48.958;8.284;2023-05-20T04:47:13;6.65;;;3.60;;
30707;SDS011;17458;48.958;8.284;2023-05-20T04:49:58;3.80;;;2.70;;
30707;SDS011;17458;48.958;8.284;2023-05-20T04:52:42;5.68;;;3.65;;
30707;SDS011;17458;48.958;8.284;2023-05-20T04:55:28;4.22;;;3.20;;
30707;SDS011;17458;48.958;8.284;2023-05-20T04:58:13;5.05;;;3.25;;
30707;SDS011;17458;48.958;8.284;2023-05-20T05:01:01;5.50;;;3.25;;
30707;SDS011;17458;48.958;8.284;2023-05-20T05:03:45;7.15;;;4.00;;
30707;SDS011;17458;48.958;8.284;2023-05-20T05:06:30;8.10;;;3.10;;
30707;SDS011;17458;48.958;8.284;2023-05-20T05:09:15;7.38;;;4.38;;
30707;SDS011;17458;48.958;8.284;2023-05-20T05:12:01;5.30;;;3.42;;
30707;SDS011;17458;48.958;8.284;2023-05-20T05:14:46;5.43;;;3.17;;
30707;SDS011;17458;48.958;8.284;2023-05-20T05:17:30;13.50;;;3.83;;
30707;SDS011;17458;48.958;8.284;2023-05-20T05:20:15;3.40;;;3.05;;
30707;SDS011;17458;48.958;8.284;2023-05-20T05:22:59;3.35;;;2.83;;
30707;SDS011;17458;48.958;8.284;2023-05-20T05:25:43;10.38;;;3.45;;
30707;SDS011;17458;48.958;8.284;2023-05-20T05:28:27;4.05;;;3.25;;
30707;SDS011;17458;48.958;8.284;2023-05-20T05:31:11;3.55;;;3.25;;
30707;SDS011;17458;48.958;8.284;2023-05-20T05:33:55;4.82;;;3.40;;
30707;SDS011;17458;48.958;8.284;2023-05-20T05:36:39;4.03;;;3.28;;
30707;SDS011;17458;48.958;8.284;2023-05-20T05:39:24;7.57;;;3.45;;
30707;SDS011;17458;48.958;8.284;2023-05-20T05:42:09;4.57;;;3.55;;
30707;SDS011;17458;48.958;8.284;2023-05-20T05:44:53;8.68;;;3.20;;
30707;SDS011;17458;48.958;8.284;2023-05-20T05:47:37;5.65;;;3.00;;
30707;SDS011;17458;48.958;8.284;2023-05-20T05:50:21;5.13;;;3.33;;
30707;SDS011;17458;48.958;8.284;2023-05-20T05:53:06;7.22;;;3.25;;
30707;SDS011;17458;48.958;8.284;2023-05-20T05:55:52;3.17;;;2.88;;
30707;SDS011;17458;48.958;8.284;2023-05-20T05:58:37;4.45;;;3.75;;
30707;SDS011;17458;48.958;8.284;2023-05-20T06:01:23;7.25;;;3.63;;
30707;SDS011;17458;48.958;8.284;2023-05-20T06:04:07;9.30;;;3.70;;
30707;SDS011;17458;48.958;8.284;2023-05-20T06:06:52;12.95;;;3.35;;
30707;SDS011;17458;48.958;8.284;2023-05-20T06:09:37;5.53;;;3.53;;
30707;SDS011;17458;48.958;8.284;2023-05-20T06:12:22;4.68;;;3.40;;
30707;SDS011;17458;48.958;8.284;2023-05-20T06:15:06;3.88;;;3.47;;
30707;SDS011;17458;48.958;8.284;2023-05-20T06:17:51;7.20;;;3.67;;
30707;SDS011;17458;48.958;8.284;2023-05-20T06:20:35;6.63;;;3.38;;
30707;SDS011;17458;48.958;8.284;2023-05-20T06:23:20;7.60;;;3.88;;
30707;SDS011;17458;48.958;8.284;2023-05-20T06:26:14;12.93;;;3.88;;
30707;SDS011;17458;48.958;8.284;2023-05-20T06:28:59;5.50;;;4.22;;
30707;SDS011;17458;48.958;8.284;2023-05-20T06:31:43;8.57;;;3.75;;
30707;SDS011;17458;48.958;8.284;2023-05-20T06:34:27;4.93;;;3.80;;
30707;SDS011;17458;48.958;8.284;2023-05-20T06:37:11;6.53;;;4.10;;
30707;SDS011;17458;48.958;8.284;2023-05-20T06:39:55;4.85;;;3.70;;
30707;SDS011;17458;48.958;8.284;2023-05-20T06:42:39;8.98;;;4.22;;
30707;SDS011;17458;48.958;8.284;2023-05-20T06:45:23;5.75;;;4.30;;
30707;SDS011;17458;48.958;8.284;2023-05-20T06:48:11;7.40;;;3.85;;
30707;SDS011;17458;48.958;8.284;2023-05-20T06:50:55;8.43;;;3.78;;
30707;SDS011;17458;48.958;8.284;2023-05-20T06:53:39;6.07;;;3.92;;
30707;SDS011;17458;48.958;8.284;2023-05-20T06:56:24;9.07;;;4.68;;
30707;SDS011;17458;48.958;8.284;2023-05-20T06:59:08;10.32;;;4.07;;
30707;SDS011;17458;48.958;8.284;2023-05-20T07:01:53;10.57;;;4.10;;
30707;SDS011;17458;48.958;8.284;2023-05-20T07:04:38;7.90;;;3.88;;
30707;SDS011;17458;48.958;8.284;2023-05-20T07:07:22;9.38;;;3.83;;
30707;SDS011;17458;48.958;8.284;2023-05-20T07:10:06;4.70;;;3.33;;
30707;SDS011;17458;48.958;8.284;2023-05-20T07:12:51;6.70;;;3.10;;
30707;SDS011;17458;48.958;8.284;2023-05-20T07:15:35;7.07;;;3.75;;
30707;SDS011;17458;48.958;8.284;2023-05-20T07:18:20;5.70;;;3.75;;
30707;SDS011;17458;48.958;8.284;2023-05-20T07:21:09;6.75;;;3.67;;
30707;SDS011;17458;48.958;8.284;2023-05-20T07:24:16;5.15;;;3.28;;
30707;SDS011;17458;48.958;8.284;2023-05-20T07:27:00;6.65;;;3.70;;
30707;SDS011;17458;48.958;8.284;2023-05-20T07:29:45;6.00;;;3.58;;
30707;SDS011;17458;48.958;8.284;2023-05-20T07:32:29;5.90;;;3.72;;
30707;SDS011;17458;48.958;8.284;2023-05-20T07:35:13;6.63;;;3.50;;
30707;SDS011;17458;48.958;8.284;2023-05-20T07:37:57;6.78;;;3.58;;
30707;SDS011;17458;48.958;8.284;2023-05-20T07:40:41;5.95;;;3.95;;
30707;SDS011;17458;48.958;8.284;2023-05-20T07:43:27;5.57;;;4.10;;
30707;SDS011;17458;48.958;8.284;2023-05-20T07:46:11;4.45;;;3.78;;
30707;SDS011;17458;48.958;8.284;2023-05-20T07:48:56;9.57;;;3.92;;
30707;SDS011;17458;48.958;8.284;2023-05-20T07:51:40;7.35;;;3.95;;
30707;SDS011;17458;48.958;8.284;2023-05-20T07:54:25;5.35;;;3.67;;
30707;SDS011;17458;48.958;8.284;2023-05-20T07:57:10;8.90;;;3.92;;
30707;SDS011;17458;48.958;8.284;2023-05-20T07:59:55;5.57;;;4.00;;
30707;SDS011;17458;48.958;8.284;2023-05-20T08:02:39;7.07;;;3.97;;
30707;SDS011;17458;48.958;8.284;2023-05-20T08:05:23;4.55;;;3.78;;
30707;SDS011;17458;48.958;8.284;2023-05-20T08:08:07;9.43;;;4.05;;
30707;SDS011;17458;48.958;8.284;2023-05-20T08:11:04;8.45;;;4.80;;
30707;SDS011;17458;48.958;8.284;2023-05-20T08:13:49;6.75;;;3.75;;
30707;SDS011;17458;48.958;8.284;2023-05-20T08:16:34;5.18;;;3.50;;
30707;SDS011;17458;48.958;8.284;2023-05-20T08:19:20;6.85;;;4.50;;
30707;SDS011;17458;48.958;8.284;2023-05-20T08:22:06;12.43;;;4.25;;
30707;SDS011;17458;48.958;8.284;2023-05-20T08:24:51;8.85;;;3.58;;
30707;SDS011;17458;48.958;8.284;2023-05-20T08:27:35;10.68;;;5.38;;
30707;SDS011;17458;48.958;8.284;2023-05-20T08:30:20;7.35;;;3.80;;
30707;SDS011;17458;48.958;8.284;2023-05-20T08:33:04;6.03;;;4.03;;
30707;SDS011;17458;48.958;8.284;2023-05-20T08:35:49;6.28;;;4.50;;
30707;SDS011;17458;48.958;8.284;2023-05-20T08:38:33;7.75;;;3.97;;
30707;SDS011;17458;48.958;8.284;2023-05-20T08:41:17;7.55;;;4.43;;
30707;SDS011;17458;48.958;8.284;2023-05-20T08:44:04;8.57;;;4.82;;
30707;SDS011;17458;48.958;8.284;2023-05-20T08:46:52;5.40;;;4.25;;
30707;SDS011;17458;48.958;8.284;2023-05-20T08:49:37;8.75;;;4.05;;
30707;SDS011;17458;48.958;8.284;2023-05-20T08:52:21;5.03;;;4.15;;
30707;SDS011;17458;48.958;8.284;2023-05-20T08:55:08;8.13;;;4.68;;
30707;SDS011;17458;48.958;8.284;2023-05-20T08:57:58;6.75;;;4.57;;
30707;SDS011;17458;48.958;8.284;2023-05-20T09:00:42;5.43;;;4.07;;
30707;SDS011;17458;48.958;8.284;2023-05-20T09:03:26;9.55;;;5.00;;
30707;SDS011;17458;48.958;8.284;2023-05-20T09:06:15;7.03;;;4.47;;
30707;SDS011;17458;48.958;8.284;2023-05-20T09:09:02;8.75;;;4.55;;
30707;SDS011;17458;48.958;8.284;2023-05-20T09:11:47;7.32;;;4.20;;
30707;SDS011;17458;48.958;8.284;2023-05-20T09:14:31;7.18;;;3.80;;
30707;SDS011;17458;48.958;8.284;2023-05-20T09:17:15;4.10;;;3.63;;
30707;SDS011;17458;48.958;8.284;2023-05-20T09:20:01;6.07;;;3.72;;
30707;SDS011;17458;48.958;8.284;2023-05-20T09:22:50;4.50;;;4.07;;
30707;SDS011;17458;48.958;8.284;2023-05-20T09:25:38;4.97;;;3.83;;
30707;SDS011;17458;48.958;8.284;2023-05-20T09:28:22;6.32;;;4.47;;
30707;SDS011;17458;48.958;8.284;2023-05-20T09:31:07;6.95;;;4.38;;
30707;SDS011;17458;48.958;8.284;2023-05-20T09:33:52;5.00;;;3.85;;
30707;SDS011;17458;48.958;8.284;2023-05-20T09:36:38;10.13;;;4.03;;
30707;SDS011;17458;48.958;8.284;2023-05-20T09:39:24;6.53;;;4.10;;
30707;SDS011;17458;48.958;8.284;2023-05-20T09:42:22;8.35;;;3.90;;
30707;SDS011;17458;48.958;8.284;2023-05-20T09:45:09;8.05;;;3.85;;
30707;SDS011;17458;48.958;8.284;2023-05-20T09:47:53;4.72;;;3.55;;
30707;SDS011;17458;48.958;8.284;2023-05-20T09:50:38;7.85;;;3.80;;
30707;SDS011;17458;48.958;8.284;2023-05-20T09:53:27;7.68;;;3.95;;
30707;SDS011;17458;48.958;8.284;2023-05-20T09:56:11;5.70;;;3.97;;
30707;SDS011;17458;48.958;8.284;2023-05-20T09:58:56;5.68;;;4.05;;
30707;SDS011;17458;48.958;8.284;2023-05-20T10:01:42;4.85;;;3.88;;
30707;SDS011;17458;48.958;8.284;2023-05-20T10:04:27;7.15;;;3.92;;
30707;SDS011;17458;48.958;8.284;2023-05-20T10:19:37;5.05;;;3.78;;
30707;SDS011;17458;48.958;8.284;2023-05-20T10:22:28;6.10;;;4.05;;
30707;SDS011;17458;48.958;8.284;2023-05-20T10:25:22;9.88;;;4.18;;
30707;SDS011;17458;48.958;8.284;2023-05-20T10:28:09;7.13;;;3.85;;
30707;SDS011;17458;48.958;8.284;2023-05-20T10:30:54;7.00;;;4.13;;
30707;SDS011;17458;48.958;8.284;2023-05-20T10:33:41;6.60;;;4.07;;
30707;SDS011;17458;48.958;8.284;2023-05-20T10:36:27;8.00;;;3.72;;
30707;SDS011;17458;48.958;8.284;2023-05-20T10:39:14;4.43;;;3.88;;
30707;SDS011;17458;48.958;8.284;2023-05-20T10:42:10;8.10;;;3.67;;
30707;SDS011;17458;48.958;8.284;2023-05-20T10:44:54;3.63;;;3.30;;
30707;SDS011;17458;48.958;8.284;2023-05-20T10:47:52;6.70;;;4.28;;
30707;SDS011;17458;48.958;8.284;2023-05-20T10:50:39;6.50;;;3.63;;
30707;SDS011;17458;48.958;8.284;2023-05-20T10:53:23;5.13;;;4.05;;
30707;SDS011;17458;48.958;8.284;2023-05-20T10:56:25;5.88;;;3.28;;
30707;SDS011;17458;48.958;8.284;2023-05-20T10:59:09;10.25;;;3.80;;
30707;SDS011;17458;48.958;8.284;2023-05-20T11:01:53;3.58;;;3.25;;
30707;SDS011;17458;48.958;8.284;2023-05-20T11:04:38;6.90;;;4.15;;
30707;SDS011;17458;48.958;8.284;2023-05-20T11:07:26;3.60;;;3.30;;
30707;SDS011;17458;48.958;8.284;2023-05-20T11:10:11;4.75;;;3.38;;
30707;SDS011;17458;48.958;8.284;2023-05-20T11:12:55;4.72;;;3.05;;
30707;SDS011;17458;48.958;8.284;2023-05-20T11:15:40;3.58;;;3.10;;
30707;SDS011;17458;48.958;8.284;2023-05-20T11:18:27;6.03;;;4.72;;
30707;SDS011;17458;48.958;8.284;2023-05-20T11:21:15;8.00;;;3.88;;
30707;SDS011;17458;48.958;8.284;2023-05-20T11:23:59;5.35;;;3.50;;
30707;SDS011;17458;48.958;8.284;2023-05-20T11:26:44;5.65;;;2.80;;
30707;SDS011;17458;48.958;8.284;2023-05-20T11:29:27;6.78;;;3.60;;
30707;SDS011;17458;48.958;8.284;2023-05-20T11:32:14;5.20;;;3.65;;
30707;SDS011;17458;48.958;8.284;2023-05-20T11:35:02;4.68;;;3.60;;
30707;SDS011;17458;48.958;8.284;2023-05-20T11:37:54;8.80;;;3.80;;
30707;SDS011;17458;48.958;8.284;2023-05-20T11:40:45;8.55;;;4.03;;
30707;SDS011;17458;48.958;8.284;2023-05-20T11:43:34;6.45;;;3.38;;
30707;SDS011;17458;48.958;8.284;2023-05-20T11:46:19;4.03;;;3.35;;
30707;SDS011;17458;48.958;8.284;2023-05-20T11:49:03;4.95;;;3.75;;
30707;SDS011;17458;48.958;8.284;2023-05-20T11:51:50;9.23;;;4.03;;
30707;SDS011;17458;48.958;8.284;2023-05-20T11:54:34;4.07;;;3.08;;
30707;SDS011;17458;48.958;8.284;2023-05-20T11:57:19;4.78;;;3.80;;
30707;SDS011;17458;48.958;8.284;2023-05-20T12:00:03;4.88;;;3.28;;
30707;SDS011;17458;48.958;8.284;2023-05-20T12:02:50;6.28;;;4.15;;
30707;SDS011;17458;48.958;8.284;2023-05-20T12:05:34;5.10;;;3.70;;
30707;SDS011;17458;48.958;8.284;2023-05-20T12:08:21;5.07;;;3.72;;
30707;SDS011;17458;48.958;8.284;2023-05-20T12:11:05;4.65;;;3.78;;
30707;SDS011;17458;48.958;8.284;2023-05-20T12:13:49;9.07;;;4.13;;
30707;SDS011;17458;48.958;8.284;2023-05-20T12:16:34;5.10;;;3.42;;
30707;SDS011;17458;48.958;8.284;2023-05-20T12:19:19;6.30;;;3.33;;
30707;SDS011;17458;48.958;8.284;2023-05-20T12:22:02;3.30;;;3.00;;
30707;SDS011;17458;48.958;8.284;2023-05-20T12:24:48;5.28;;;3.47;;
30707;SDS011;17458;48.958;8.284;2023-05-20T12:27:33;7.03;;;3.75;;
30707;SDS011;17458;48.958;8.284;2023-05-20T12:30:18;5.43;;;3.55;;
30707;SDS011;17458;48.958;8.284;2023-05-20T12:33:03;4.72;;;3.28;;
30707;SDS011;17458;48.958;8.284;2023-05-20T12:35:47;3.90;;;3.50;;
30707;SDS011;17458;48.958;8.284;2023-05-20T12:38:31;4.93;;;3.33;;
30707;SDS011;17458;48.958;8.284;2023-05-20T12:41:16;7.45;;;4.20;;
30707;SDS011;17458;48.958;8.284;2023-05-20T12:44:00;3.65;;;3.33;;
30707;SDS011;17458;48.958;8.284;2023-05-20T12:46:44;4.25;;;3.58;;
30707;SDS011;17458;48.958;8.284;2023-05-20T12:49:28;5.50;;;4.13;;
30707;SDS011;17458;48.958;8.284;2023-05-20T12:52:12;4.88;;;3.90;;
30707;SDS011;17458;48.958;8.284;2023-05-20T12:54:56;5.95;;;3.97;;
30707;SDS011;17458;48.958;8.284;2023-05-20T12:57:40;4.47;;;3.75;;
30707;SDS011;17458;48.958;8.284;2023-05-20T13:00:26;4.88;;;3.60;;
30707;SDS011;17458;48.958;8.284;2023-05-20T13:03:10;5.55;;;4.18;;
30707;SDS011;17458;48.958;8.284;2023-05-20T13:05:54;8.35;;;3.75;;
30707;SDS011;17458;48.958;8.284;2023-05-20T13:08:38;4.50;;;3.33;;
30707;SDS011;17458;48.958;8.284;2023-05-20T13:11:23;6.32;;;4.13;;
30707;SDS011;17458;48.958;8.284;2023-05-20T13:14:07;5.82;;;3.85;;
30707;SDS011;17458;48.958;8.284;2023-05-20T13:16:51;4.47;;;3.65;;
30707;SDS011;17458;48.958;8.284;2023-05-20T13:19:37;5.13;;;3.75;;
30707;SDS011;17458;48.958;8.284;2023-05-20T13:22:23;4.57;;;3.58;;
30707;SDS011;17458;48.958;8.284;2023-05-20T13:25:07;4.10;;;3.70;;
30707;SDS011;17458;48.958;8.284;2023-05-20T13:27:52;7.97;;;3.50;;
30707;SDS011;17458;48.958;8.284;2023-05-20T13:30:36;4.07;;;3.63;;
30707;SDS011;17458;48.958;8.284;2023-05-20T13:33:20;5.45;;;4.20;;
30707;SDS011;17458;48.958;8.284;2023-05-20T13:36:05;6.03;;;4.05;;
30707;SDS011;17458;48.958;8.284;2023-05-20T13:38:49;8.27;;;3.90;;
30707;SDS011;17458;48.958;8.284;2023-05-20T13:41:34;5.15;;;4.10;;
30707;SDS011;17458;48.958;8.284;2023-05-20T13:44:18;6.50;;;3.38;;
30707;SDS011;17458;48.958;8.284;2023-05-20T13:47:02;6.85;;;4.20;;
30707;SDS011;17458;48.958;8.284;2023-05-20T13:49:46;5.63;;;4.07;;
30707;SDS011;17458;48.958;8.284;2023-05-20T13:52:30;4.72;;;3.50;;
30707;SDS011;17458;48.958;8.284;2023-05-20T13:55:14;7.18;;;4.05;;
30707;SDS011;17458;48.958;8.284;2023-05-20T13:57:59;5.65;;;3.85;;
30707;SDS011;17458;48.958;8.284;2023-05-20T14:00:43;7.30;;;4.30;;
30707;SDS011;17458;48.958;8.284;2023-05-20T14:03:27;4.85;;;4.05;;
30707;SDS011;17458;48.958;8.284;2023-05-20T14:06:11;9.55;;;4.53;;
30707;SDS011;17458;48.958;8.284;2023-05-20T14:08:57;5.55;;;4.13;;
30707;SDS011;17458;48.958;8.284;2023-05-20T14:11:41;6.53;;;4.30;;
30707;SDS011;17458;48.958;8.284;2023-05-20T14:14:25;6.75;;;4.20;;
30707;SDS011;17458;48.958;8.284;2023-05-20T14:17:09;6.75;;;3.92;;
30707;SDS011;17458;48.958;8.284;2023-05-20T14:19:53;5.50;;;4.07;;
30707;SDS011;17458;48.958;8.284;2023-05-20T14:22:37;5.78;;;4.30;;
30707;SDS011;17458;48.958;8.284;2023-05-20T14:25:21;5.03;;;4.25;;
30707;SDS011;17458;48.958;8.284;2023-05-20T14:28:05;6.32;;;4.07;;
30707;SDS011;17458;48.958;8.284;2023-05-20T14:30:50;5.90;;;4.40;;
30707;SDS011;17458;48.958;8.284;2023-05-20T14:33:34;5.78;;;3.92;;
30707;SDS011;17458;48.958;8.284;2023-05-20T14:36:18;5.45;;;4.03;;
30707;SDS011;17458;48.958;8.284;2023-05-20T14:39:02;6.60;;;4.15;;
30707;SDS011;17458;48.958;8.284;2023-05-20T14:41:46;5.15;;;4.43;;
30707;SDS011;17458;48.958;8.284;2023-05-20T14:44:30;7.18;;;4.38;;
30707;SDS011;17458;48.958;8.284;2023-05-20T14:47:14;6.25;;;4.00;;
30707;SDS011;17458;48.958;8.284;2023-05-20T14:50:01;6.40;;;4.38;;
30707;SDS011;17458;48.958;8.284;2023-05-20T14:52:45;6.20;;;4.38;;
30707;SDS011;17458;48.958;8.284;2023-05-20T14:55:29;7.05;;;5.10;;
30707;SDS011;17458;48.958;8.284;2023-05-20T14:58:13;5.18;;;4.15;;
30707;SDS011;17458;48.958;8.284;2023-05-20T15:00:58;4.65;;;3.88;;
30707;SDS011;17458;48.958;8.284;2023-05-20T15:03:42;4.93;;;4.43;;
30707;SDS011;17458;48.958;8.284;2023-05-20T15:06:26;7.43;;;4.25;;
30707;SDS011;17458;48.958;8.284;2023-05-20T15:09:10;4.78;;;4.25;;
30707;SDS011;17458;48.958;8.284;2023-05-20T15:11:54;5.93;;;4.50;;
30707;SDS011;17458;48.958;8.284;2023-05-20T15:14:38;7.13;;;3.80;;
30707;SDS011;17458;48.958;8.284;2023-05-20T15:17:22;6.70;;;4.85;;
30707;SDS011;17458;48.958;8.284;2023-05-20T15:20:06;8.27;;;4.20;;
30707;SDS011;17458;48.958;8.284;2023-05-20T15:22:52;6.90;;;4.57;;
30707;SDS011;17458;48.958;8.284;2023-05-20T15:25:36;6.80;;;4.55;;
30707;SDS011;17458;48.958;8.284;2023-05-20T15:28:20;7.40;;;4.43;;
30707;SDS011;17458;48.958;8.284;2023-05-20T15:31:04;11.68;;;4.90;;
30707;SDS011;17458;48.958;8.284;2023-05-20T15:33:48;6.80;;;5.28;;
30707;SDS011;17458;48.958;8.284;2023-05-20T15:36:32;7.80;;;4.10;;
30707;SDS011;17458;48.958;8.284;2023-05-20T15:39:16;12.13;;;4.50;;
30707;SDS011;17458;48.958;8.284;2023-05-20T15:42:01;8.40;;;5.13;;
30707;SDS011;17458;48.958;8.284;2023-05-20T15:44:46;9.13;;;4.65;;
30707;SDS011;17458;48.958;8.284;2023-05-20T15:47:30;6.40;;;4.80;;
30707;SDS011;17458;48.958;8.284;2023-05-20T15:50:14;6.38;;;4.50;;
30707;SDS011;17458;48.958;8.284;2023-05-20T15:52:58;10.13;;;5.03;;
30707;SDS011;17458;48.958;8.284;2023-05-20T15:55:43;7.85;;;4.35;;
30707;SDS011;17458;48.958;8.284;2023-05-20T15:58:27;5.97;;;4.38;;
30707;SDS011;17458;48.958;8.284;2023-05-20T16:01:11;8.70;;;4.60;;
30707;SDS011;17458;48.958;8.284;2023-05-20T16:03:54;5.45;;;4.15;;
30707;SDS011;17458;48.958;8.284;2023-05-20T16:06:39;5.05;;;4.50;;
30707;SDS011;17458;48.958;8.284;2023-05-20T16:09:23;7.28;;;4.65;;
30707;SDS011;17458;48.958;8.284;2023-05-20T16:12:07;6.40;;;4.80;;
30707;SDS011;17458;48.958;8.284;2023-05-20T16:14:51;5.80;;;4.20;;
30707;SDS011;17458;48.958;8.284;2023-05-20T16:17:35;5.78;;;4.32;;
30707;SDS011;17458;48.958;8.284;2023-05-20T16:20:19;10.65;;;6.30;;
30707;SDS011;17458;48.958;8.284;2023-05-20T16:23:03;9.15;;;6.43;;
30707;SDS011;17458;48.958;8.284;2023-05-20T16:25:48;8.23;;;5.25;;
30707;SDS011;17458;48.958;8.284;2023-05-20T16:28:32;7.05;;;5.40;;
30707;SDS011;17458;48.958;8.284;2023-05-20T16:31:16;5.43;;;4.18;;
30707;SDS011;17458;48.958;8.284;2023-05-20T16:34:01;5.15;;;4.35;;
30707;SDS011;17458;48.958;8.284;2023-05-20T16:36:46;4.80;;;4.38;;
30707;SDS011;17458;48.958;8.284;2023-05-20T16:39:30;7.45;;;4.43;;
30707;SDS011;17458;48.958;8.284;2023-05-20T16:42:14;14.00;;;7.40;;
30707;SDS011;17458;48.958;8.284;2023-05-20T16:44:58;6.72;;;4.70;;
30707;SDS011;17458;48.958;8.284;2023-05-20T16:47:42;7.28;;;4.82;;